Time;durP1;ratioP1;P1;durP2;ratioP2;P2;SDS_P1;SDS_P2;PMS_P1;PMS_P2;Temp;Humidity;BMP_temperature;BMP_pressure;BME280_temperature;BME280_humidity;BME280_pressure;Samples;Min_cycle;Max_cycle;Signal;HPM_P1;HPM_P2
2022/04/29 00:00:43;;;;;;;7.47;6.03;;;5.80;99.90;;;;;;4942387;29;20177;-80
2022/04/29 00:03:11;;;;;;;7.73;6.13;;;5.80;99.90;;;;;;4940969;29;20326;-80
2022/04/29 00:05:40;;;;;;;8.07;6.00;;;5.80;99.90;;;;;;4942219;29;20475;-81
2022/04/29 00:08:08;;;;;;;10.33;6.03;;;5.80;99.90;;;;;;4941251;29;20430;-80
2022/04/29 00:10:34;;;;;;;7.27;5.50;;;5.70;99.90;;;;;;4941303;29;20472;-80
2022/04/29 00:13:01;;;;;;;8.30;6.63;;;5.50;99.90;;;;;;4942478;29;20433;-80
2022/04/29 00:15:27;;;;;;;10.77;6.17;;;5.60;99.90;;;;;;4941441;29;20781;-80
2022/04/29 00:17:53;;;;;;;8.20;5.83;;;5.50;99.90;;;;;;4940686;29;20425;-80
2022/04/29 00:20:18;;;;;;;8.30;5.67;;;5.50;99.90;;;;;;4940061;29;20433;-80
2022/04/29 00:22:44;;;;;;;9.93;6.30;;;5.50;99.90;;;;;;4942308;29;20229;-80
2022/04/29 00:25:11;;;;;;;7.80;6.47;;;5.40;99.90;;;;;;4940343;29;20190;-80
2022/04/29 00:27:42;;;;;;;9.80;6.03;;;5.40;99.90;;;;;;4942066;29;20188;-80
2022/04/29 00:30:10;;;;;;;12.47;7.33;;;5.40;99.90;;;;;;4940610;29;20457;-80
2022/04/29 00:32:37;;;;;;;8.30;6.73;;;5.30;99.90;;;;;;4941937;29;20532;-80
2022/04/29 00:35:03;;;;;;;10.23;6.20;;;5.30;99.90;;;;;;4940883;29;20416;-81
2022/04/29 00:37:30;;;;;;;12.67;7.27;;;5.20;99.90;;;;;;4940746;29;20430;-80
2022/04/29 00:39:56;;;;;;;8.13;6.17;;;5.40;99.90;;;;;;4940876;29;20777;-81
2022/04/29 00:42:22;;;;;;;9.03;5.93;;;5.10;99.90;;;;;;4942432;29;20447;-80
2022/04/29 00:44:49;;;;;;;9.97;6.43;;;5.10;99.90;;;;;;4942186;29;20254;-80
2022/04/29 00:47:17;;;;;;;9.07;5.80;;;5.00;99.90;;;;;;4940246;29;20799;-80
2022/04/29 00:49:43;;;;;;;10.00;6.17;;;5.10;99.90;;;;;;4940140;29;20532;-80
2022/04/29 00:52:13;;;;;;;8.83;6.77;;;4.90;99.90;;;;;;4941489;29;20426;-81
2022/04/29 00:54:40;;;;;;;8.57;6.47;;;4.90;99.90;;;;;;4941684;29;20178;-80
2022/04/29 00:57:09;;;;;;;9.30;6.77;;;4.90;99.90;;;;;;4941697;29;20497;-80
2022/04/29 00:59:49;;;;;;;8.93;6.43;;;4.90;99.90;;;;;;4940468;29;20505;-80
2022/04/29 01:02:15;;;;;;;8.60;6.10;;;4.80;99.90;;;;;;4942234;29;20844;-81
2022/04/29 01:05:02;;;;;;;8.77;6.17;;;4.80;99.90;;;;;;4942796;29;20464;-81
2022/04/29 01:07:29;;;;;;;9.57;6.47;;;4.80;99.90;;;;;;4942410;29;20902;-81
2022/04/29 01:09:55;;;;;;;7.87;6.00;;;4.60;99.90;;;;;;4940917;29;20464;-80
2022/04/29 01:12:24;;;;;;;13.27;8.70;;;4.70;99.90;;;;;;4940891;29;20441;-81
2022/04/29 01:14:49;;;;;;;13.73;9.27;;;5.00;99.90;;;;;;4943794;29;20521;-80
2022/04/29 01:17:15;;;;;;;12.20;8.47;;;5.40;99.90;;;;;;4940190;29;20508;-80
2022/04/29 01:19:41;;;;;;;10.57;7.80;;;4.70;99.90;;;;;;4942596;29;20177;-80
2022/04/29 01:22:07;;;;;;;9.17;7.60;;;4.70;99.90;;;;;;4939847;29;20204;-80
2022/04/29 01:24:33;;;;;;;10.43;5.63;;;4.70;99.90;;;;;;4939275;29;20727;-80
2022/04/29 01:26:59;;;;;;;6.93;6.23;;;4.60;99.90;;;;;;4938946;29;20520;-80
2022/04/29 01:29:26;;;;;;;8.10;6.10;;;5.40;99.90;;;;;;4938590;29;20296;-81
2022/04/29 01:31:53;;;;;;;9.23;6.73;;;6.10;99.90;;;;;;4937782;29;20244;-80
2022/04/29 01:34:19;;;;;;;9.70;6.03;;;4.50;99.90;;;;;;4937824;29;20417;-80
2022/04/29 01:36:45;;;;;;;7.43;6.20;;;6.20;99.90;;;;;;4938610;29;20914;-80
2022/04/29 01:39:10;;;;;;;6.90;5.33;;;5.90;99.90;;;;;;4938851;29;20189;-80
2022/04/29 01:41:36;;;;;;;7.00;6.27;;;4.50;99.90;;;;;;4937273;29;20209;-80
2022/04/29 01:44:02;;;;;;;6.40;5.33;;;4.90;99.90;;;;;;4938139;29;20640;-80
2022/04/29 01:46:28;;;;;;;7.13;5.70;;;4.50;99.90;;;;;;4938168;29;20584;-80
2022/04/29 01:48:53;;;;;;;12.17;7.23;;;4.40;99.90;;;;;;4936512;29;20426;-80
2022/04/29 01:51:19;;;;;;;8.30;6.70;;;4.90;99.90;;;;;;4937916;29;20213;-80
2022/04/29 01:53:45;;;;;;;9.87;6.97;;;5.70;99.90;;;;;;4939122;29;20212;-80
2022/04/29 01:56:11;;;;;;;8.77;7.17;;;4.40;99.90;;;;;;4939059;29;20184;-80
2022/04/29 01:58:37;;;;;;;9.07;7.07;;;4.30;99.90;;;;;;4940110;29;20414;-80
2022/04/29 02:01:03;;;;;;;10.33;6.77;;;4.20;99.90;;;;;;4941532;29;20232;-80
2022/04/29 02:03:29;;;;;;;8.60;7.17;;;4.10;99.90;;;;;;4942529;29;20445;-80
2022/04/29 02:05:54;;;;;;;7.73;6.60;;;5.20;99.90;;;;;;4942000;29;20184;-80
2022/04/29 02:08:20;;;;;;;9.03;6.70;;;4.90;99.90;;;;;;4940341;29;20181;-80
2022/04/29 02:10:46;;;;;;;7.20;6.43;;;3.90;99.90;;;;;;4940405;29;20710;-81
2022/04/29 02:13:12;;;;;;;9.90;7.13;;;4.00;99.90;;;;;;4942276;29;20173;-80
2022/04/29 02:15:38;;;;;;;8.13;7.07;;;4.20;99.90;;;;;;4941319;29;20662;-80
2022/04/29 02:18:04;;;;;;;9.53;7.23;;;4.10;99.90;;;;;;4940972;29;20422;-80
2022/04/29 02:20:29;;;;;;;11.90;7.37;;;4.00;99.90;;;;;;4940473;29;20184;-80
2022/04/29 02:22:55;;;;;;;7.90;6.17;;;5.00;99.90;;;;;;4939310;29;20201;-80
2022/04/29 02:25:21;;;;;;;11.20;7.40;;;4.60;99.90;;;;;;4939657;29;20181;-81
2022/04/29 02:27:46;;;;;;;9.63;7.03;;;4.00;99.90;;;;;;4939784;29;20674;-80
2022/04/29 02:30:13;;;;;;;9.00;7.67;;;5.00;99.90;;;;;;4939877;29;20212;-80
2022/04/29 02:32:39;;;;;;;9.20;7.70;;;3.80;99.90;;;;;;4943315;29;20186;-81
2022/04/29 02:35:05;;;;;;;10.53;7.67;;;4.90;99.90;;;;;;4941716;29;20409;-80
2022/04/29 02:37:32;;;;;;;8.83;7.37;;;3.70;99.90;;;;;;4941297;29;20185;-81
2022/04/29 02:39:57;;;;;;;10.03;7.73;;;3.70;99.90;;;;;;4940564;29;20492;-80
2022/04/29 02:42:23;;;;;;;10.07;7.17;;;4.00;99.90;;;;;;4942309;29;20602;-81
2022/04/29 02:44:49;;;;;;;14.70;8.73;;;3.70;99.90;;;;;;4941263;29;20189;-80
2022/04/29 02:47:15;;;;;;;11.50;7.07;;;4.60;99.90;;;;;;4943130;29;20182;-79
2022/04/29 02:49:43;;;;;;;11.10;7.17;;;4.90;99.90;;;;;;4944937;29;20209;-80
2022/04/29 02:52:11;;;;;;;11.20;7.60;;;3.60;99.90;;;;;;4938915;29;20273;-80
2022/04/29 02:54:37;;;;;;;7.83;6.47;;;3.50;99.90;;;;;;4941309;29;20416;-80
2022/04/29 02:57:04;;;;;;;7.90;6.37;;;3.50;99.90;;;;;;4941382;29;20452;-80
2022/04/29 02:59:30;;;;;;;10.33;6.40;;;3.40;99.90;;;;;;4941060;29;20444;-80
2022/04/29 03:01:56;;;;;;;9.73;7.00;;;3.40;99.90;;;;;;4939028;29;20975;-80
2022/04/29 03:04:22;;;;;;;8.70;6.70;;;3.40;99.90;;;;;;4941406;29;20177;-80
2022/04/29 03:06:48;;;;;;;6.93;5.67;;;3.40;99.90;;;;;;4939875;29;20221;-81
2022/04/29 03:09:14;;;;;;;11.40;7.07;;;3.30;99.90;;;;;;4941706;29;20425;-80
2022/04/29 03:11:40;;;;;;;9.53;6.63;;;3.30;99.90;;;;;;4956780;29;20442;-79
2022/04/29 03:14:06;;;;;;;7.63;6.60;;;3.30;99.90;;;;;;4944568;29;20177;-80
2022/04/29 03:16:32;;;;;;;6.47;5.77;;;4.10;99.90;;;;;;4938122;29;20209;-80
2022/04/29 03:18:58;;;;;;;8.37;6.40;;;3.40;99.90;;;;;;4938433;29;20430;-80
2022/04/29 03:21:25;;;;;;;13.10;7.33;;;3.20;99.90;;;;;;4937802;29;20449;-80
2022/04/29 03:23:51;;;;;;;7.00;6.17;;;;;;;;;;4938143;29;20321;-80
2022/04/29 03:26:16;;;;;;;6.87;6.10;;;3.20;99.90;;;;;;4939870;29;20512;-80
2022/04/29 03:28:42;;;;;;;7.73;6.50;;;3.30;99.90;;;;;;4939377;29;20453;-80
2022/04/29 03:31:08;;;;;;;7.53;6.50;;;3.10;99.90;;;;;;4938122;29;20300;-80
2022/04/29 03:33:34;;;;;;;7.70;6.13;;;3.20;99.90;;;;;;4940235;29;20205;-80
2022/04/29 03:36:00;;;;;;;11.70;6.37;;;3.10;99.90;;;;;;4939269;29;20265;-80
2022/04/29 03:38:26;;;;;;;10.87;6.43;;;3.80;99.90;;;;;;4938437;29;20946;-80
2022/04/29 03:40:53;;;;;;;7.60;6.00;;;3.00;99.90;;;;;;4938460;29;20200;-80
2022/04/29 03:43:19;;;;;;;9.20;6.40;;;;;;;;;;4940024;29;20182;-80
2022/04/29 03:45:45;;;;;;;9.20;6.67;;;3.00;99.90;;;;;;4939357;29;20493;-80
2022/04/29 03:48:11;;;;;;;10.03;6.70;;;3.00;99.90;;;;;;4938075;29;20445;-80
2022/04/29 03:50:38;;;;;;;10.03;7.63;;;3.50;99.90;;;;;;4940401;29;21032;-79
2022/04/29 03:53:04;;;;;;;10.97;6.70;;;3.00;99.90;;;;;;4939427;29;20449;-80
2022/04/29 03:55:32;;;;;;;8.00;6.40;;;3.00;99.90;;;;;;4937837;29;20450;-80
2022/04/29 03:57:59;;;;;;;10.07;6.77;;;2.90;99.90;;;;;;4937768;29;20502;-80
2022/04/29 04:00:28;;;;;;;10.50;6.90;;;2.80;99.90;;;;;;4937898;29;20425;-80
2022/04/29 04:02:54;;;;;;;11.13;6.80;;;4.50;99.90;;;;;;4938692;29;20461;-80
2022/04/29 04:05:19;;;;;;;10.13;6.87;;;2.80;99.90;;;;;;4938570;29;20775;-80
2022/04/29 04:07:45;;;;;;;10.27;7.27;;;2.80;99.90;;;;;;4938819;29;20186;-80
2022/04/29 04:10:12;;;;;;;8.33;6.67;;;3.20;99.90;;;;;;4937018;29;20215;-80
2022/04/29 04:12:46;;;;;;;10.00;7.77;;;2.80;99.90;;;;;;4940675;29;20439;-80
2022/04/29 04:15:13;;;;;;;11.13;7.67;;;2.90;99.90;;;;;;4954880;29;20408;-81
2022/04/29 04:17:40;;;;;;;10.87;7.90;;;4.60;99.90;;;;;;4950795;28;20532;-80
2022/04/29 04:20:08;;;;;;;10.47;8.83;;;2.90;99.90;;;;;;4946916;29;20819;-80
2022/04/29 04:22:35;;;;;;;11.17;7.43;;;2.90;99.90;;;;;;4946574;29;20440;-80
2022/04/29 04:25:10;;;;;;;8.93;6.77;;;2.90;99.90;;;;;;4946168;29;20434;-80
2022/04/29 04:27:36;;;;;;;9.57;6.83;;;2.90;99.90;;;;;;4950441;29;20417;-81
2022/04/29 04:30:04;;;;;;;10.13;8.07;;;2.80;99.90;;;;;;4945045;29;20483;-80
2022/04/29 04:32:33;;;;;;;18.23;10.37;;;2.80;99.90;;;;;;4944555;29;20205;-81
2022/04/29 04:35:00;;;;;;;18.80;11.20;;;2.80;99.90;;;;;;4944052;29;20417;-81
2022/04/29 04:37:27;;;;;;;23.40;11.13;;;2.90;99.90;;;;;;4945673;29;20501;-81
2022/04/29 04:39:54;;;;;;;15.90;10.27;;;2.90;99.90;;;;;;4943531;29;20417;-81
2022/04/29 04:42:20;;;;;;;16.90;10.20;;;3.00;99.90;;;;;;4944934;29;20488;-81
2022/04/29 04:44:47;;;;;;;18.00;8.97;;;3.10;99.90;;;;;;4944662;29;20801;-80
2022/04/29 04:47:13;;;;;;;12.13;9.10;;;4.30;99.90;;;;;;4941500;29;20476;-81
2022/04/29 04:49:39;;;;;;;9.83;8.03;;;4.10;99.90;;;;;;4941809;29;20472;-81
2022/04/29 04:52:05;;;;;;;12.53;7.30;;;3.10;99.90;;;;;;4943433;29;20433;-81
2022/04/29 04:54:31;;;;;;;9.30;7.60;;;3.20;99.90;;;;;;4940798;29;20174;-81
2022/04/29 04:56:57;;;;;;;8.70;7.30;;;5.40;99.90;;;;;;4943552;29;20437;-81
2022/04/29 04:59:23;;;;;;;10.17;6.70;;;3.20;99.90;;;;;;4946115;29;20194;-81
2022/04/29 05:01:48;;;;;;;10.70;7.03;;;4.10;99.90;;;;;;4943798;29;20264;-81
2022/04/29 05:04:14;;;;;;;7.47;6.47;;;4.30;99.90;;;;;;4944718;29;20546;-81
2022/04/29 05:06:40;;;;;;;7.30;6.07;;;3.90;99.90;;;;;;4950739;29;20237;-80
2022/04/29 05:09:07;;;;;;;8.67;6.83;;;3.50;99.90;;;;;;4945969;29;20178;-81
2022/04/29 05:11:33;;;;;;;10.00;6.50;;;;;;;;;;4953999;29;20197;-81
2022/04/29 05:13:59;;;;;;;8.40;6.33;;;3.70;99.90;;;;;;4957634;29;20765;-81
2022/04/29 05:16:25;;;;;;;11.53;6.90;;;4.60;99.90;;;;;;4957355;29;20446;-81
2022/04/29 05:18:51;;;;;;;7.17;5.67;;;3.80;99.90;;;;;;4943141;29;20189;-81
2022/04/29 05:21:17;;;;;;;9.23;6.87;;;4.00;99.90;;;;;;4941452;29;20449;-81
2022/04/29 05:23:43;;;;;;;8.03;6.90;;;5.30;99.90;;;;;;4942843;29;20265;-81
2022/04/29 05:26:09;;;;;;;6.87;5.63;;;4.20;99.90;;;;;;4943013;29;20425;-80
2022/04/29 05:28:35;;;;;;;9.87;6.00;;;4.20;99.90;;;;;;4942233;29;20182;-81
2022/04/29 05:31:01;;;;;;;6.57;5.47;;;4.20;99.90;;;;;;4941258;29;20579;-80
2022/04/29 05:33:28;;;;;;;6.07;5.47;;;4.30;99.90;;;;;;4943100;29;20177;-82
2022/04/29 05:35:54;;;;;;;6.67;5.27;;;4.70;99.90;;;;;;4940768;29;20931;-81
2022/04/29 05:38:20;;;;;;;6.40;5.33;;;4.30;99.90;;;;;;4941916;29;20417;-81
2022/04/29 05:43:30;;;;;;;7.40;5.87;;;5.00;99.90;;;;;;4942240;29;20184;-81
2022/04/29 05:45:56;;;;;;;9.43;5.97;;;4.50;99.90;;;;;;4941698;29;20908;-81
2022/04/29 05:48:22;;;;;;;10.30;6.40;;;4.70;99.90;;;;;;4941767;29;20477;-81
2022/04/29 05:50:48;;;;;;;7.83;6.33;;;4.90;99.90;;;;;;4939561;29;21021;-80
2022/04/29 05:53:15;;;;;;;9.70;7.47;;;5.70;99.90;;;;;;4939775;29;20272;-81
2022/04/29 05:55:41;;;;;;;9.03;6.67;;;;;;;;;;4940258;29;20229;-81
2022/04/29 05:58:07;;;;;;;7.40;6.20;;;5.20;99.90;;;;;;4940483;29;20480;-81
2022/04/29 06:00:32;;;;;;;7.63;6.10;;;5.40;99.90;;;;;;4940016;29;20931;-81
2022/04/29 06:02:58;;;;;;;7.23;6.50;;;5.50;99.90;;;;;;4941645;29;20588;-81
2022/04/29 06:05:24;;;;;;;8.63;6.23;;;5.60;99.90;;;;;;4942233;29;20174;-81
2022/04/29 06:07:50;;;;;;;6.67;5.77;;;5.80;99.90;;;;;;4942229;29;20174;-81
2022/04/29 06:10:16;;;;;;;6.67;5.67;;;6.80;99.90;;;;;;4942202;29;20611;-81
2022/04/29 06:12:42;;;;;;;9.13;5.60;;;6.10;99.90;;;;;;4941654;29;20280;-81
2022/04/29 06:15:14;;;;;;;10.00;5.73;;;6.20;99.90;;;;;;4941864;29;20185;-81
2022/04/29 06:17:39;;;;;;;7.50;5.50;;;6.40;99.90;;;;;;4942816;29;20405;-82
2022/04/29 06:20:06;;;;;;;9.27;5.60;;;6.60;99.90;;;;;;4941068;29;20430;-81
2022/04/29 06:22:32;;;;;;;6.20;5.60;;;6.80;99.90;;;;;;4941401;29;20224;-82
2022/04/29 06:24:57;;;;;;;7.40;6.23;;;6.90;99.90;;;;;;4942296;29;20422;-81
2022/04/29 06:27:23;;;;;;;6.53;5.60;;;7.00;99.90;;;;;;4941589;29;20182;-82
2022/04/29 06:29:49;;;;;;;7.20;5.60;;;7.20;99.90;;;;;;4944131;29;20213;-80
2022/04/29 06:32:15;;;;;;;6.93;5.20;;;7.30;99.90;;;;;;4941082;29;20304;-82
2022/04/29 06:34:42;;;;;;;8.30;6.17;;;7.40;99.90;;;;;;4940884;29;20182;-82
2022/04/29 06:37:08;;;;;;;6.37;5.37;;;7.60;99.90;;;;;;4941248;29;20538;-81
2022/04/29 06:39:33;;;;;;;9.33;6.20;;;9.10;99.90;;;;;;4942431;29;20194;-82
2022/04/29 06:41:59;;;;;;;8.80;5.93;;;7.90;99.90;;;;;;4941221;29;20201;-81
2022/04/29 06:44:25;;;;;;;6.63;5.30;;;7.90;99.90;;;;;;4940640;29;20714;-82
2022/04/29 06:46:50;;;;;;;7.27;5.40;;;8.20;99.90;;;;;;4941367;29;20233;-82
2022/04/29 06:49:17;;;;;;;8.33;5.77;;;8.40;99.90;;;;;;4942090;29;20178;-81
2022/04/29 06:51:42;;;;;;;10.53;5.97;;;8.80;99.90;;;;;;4943373;29;20276;-82
2022/04/29 06:54:08;;;;;;;10.80;5.43;;;8.90;99.90;;;;;;4942117;29;20687;-81
2022/04/29 06:56:34;;;;;;;9.77;5.30;;;9.30;99.90;;;;;;4943419;29;20227;-82
2022/04/29 06:58:59;;;;;;;10.60;5.60;;;9.50;99.90;;;;;;4941446;29;20178;-82
2022/04/29 07:01:25;;;;;;;7.87;5.23;;;9.70;99.90;;;;;;4941870;29;20207;-83
2022/04/29 07:03:51;;;;;;;6.50;4.77;;;9.90;99.90;;;;;;4941547;29;20182;-83
2022/04/29 07:06:17;;;;;;;15.30;5.50;;;10.10;99.90;;;;;;4942926;29;20174;-83
2022/04/29 07:08:43;;;;;;;7.13;5.23;;;10.30;99.90;;;;;;4942273;29;20185;-83
2022/04/29 07:11:09;;;;;;;9.17;4.73;;;10.50;99.90;;;;;;4941575;29;20255;-83
2022/04/29 07:13:34;;;;;;;8.13;4.70;;;10.60;99.90;;;;;;4942442;29;20174;-83
2022/04/29 07:16:00;;;;;;;7.93;4.47;;;10.70;99.90;;;;;;4946993;29;20246;-81
2022/04/29 07:18:25;;;;;;;16.73;4.50;;;10.90;99.90;;;;;;4959732;28;20218;-82
2022/04/29 07:20:51;;;;;;;5.97;4.03;;;11.50;99.90;;;;;;4957938;29;20193;-82
2022/04/29 07:23:17;;;;;;;4.97;3.47;;;11.50;99.90;;;;;;4956257;29;20192;-83
2022/04/29 07:25:42;;;;;;;7.90;3.50;;;11.80;99.90;;;;;;4938463;29;20263;-81
2022/04/29 07:28:08;;;;;;;7.80;3.50;;;12.20;99.90;;;;;;4938893;29;20263;-81
2022/04/29 07:30:34;;;;;;;8.23;2.90;;;12.40;99.90;;;;;;4937622;29;20658;-82
2022/04/29 07:32:59;;;;;;;20.53;3.40;;;12.60;99.90;;;;;;4939507;29;20212;-82
2022/04/29 07:43:38;;;;;;;5.27;2.80;;;13.30;99.90;;;;;;4939086;29;20516;-82
2022/04/29 07:46:04;;;;;;;5.60;2.40;;;13.90;99.90;;;;;;4939136;29;20662;-82
2022/04/29 07:48:30;;;;;;;3.50;3.00;;;14.60;99.90;;;;;;4940773;29;20174;-82
2022/04/29 07:50:57;;;;;;;4.43;2.63;;;15.10;95.70;;;;;;4941764;29;20205;-82
2022/04/29 07:53:22;;;;;;;5.50;2.77;;;15.40;94.80;;;;;;4941310;29;20174;-82
2022/04/29 07:55:48;;;;;;;3.00;2.70;;;15.90;92.80;;;;;;4940019;29;20178;-83
2022/04/29 07:58:14;;;;;;;2.67;2.30;;;16.00;88.40;;;;;;4941801;29;20232;-83
2022/04/29 08:00:40;;;;;;;4.10;2.60;;;16.10;84.90;;;;;;4942442;29;20188;-82
2022/04/29 08:03:06;;;;;;;5.33;2.50;;;16.40;82.40;;;;;;4942086;29;20363;-83
2022/04/29 08:05:32;;;;;;;2.60;2.30;;;16.50;78.50;;;;;;4943584;29;20186;-84
2022/04/29 08:08:01;;;;;;;4.83;2.40;;;16.20;77.90;;;;;;4942167;29;20184;-83
2022/04/29 08:10:31;;;;;;;3.03;2.50;;;16.50;76.90;;;;;;4944150;29;20202;-83
2022/04/29 08:12:59;;;;;;;3.83;2.70;;;16.60;75.70;;;;;;4942480;29;20193;-82
2022/04/29 08:15:30;;;;;;;2.50;2.30;;;17.00;76.90;;;;;;4942661;29;20188;-83
2022/04/29 08:17:59;;;;;;;4.07;2.17;;;17.70;75.50;;;;;;4942563;29;20184;-82
2022/04/29 08:20:26;;;;;;;2.90;2.50;;;18.30;69.90;;;;;;4942164;29;20197;-81
2022/04/29 08:22:51;;;;;;;2.80;2.30;;;18.10;66.20;;;;;;4943855;29;20201;-83
2022/04/29 08:25:18;;;;;;;3.47;2.10;;;18.10;68.40;;;;;;4944101;29;20306;-84
2022/04/29 08:27:46;;;;;;;3.67;2.13;;;18.20;68.40;;;;;;4943989;29;20174;-84
2022/04/29 08:30:12;;;;;;;5.70;3.03;;;18.60;67.60;;;;;;4944462;29;20202;-83
2022/04/29 08:32:45;;;;;;;4.47;2.53;;;18.90;68.20;;;;;;4942675;29;20197;-84
2022/04/29 08:35:13;;;;;;;5.13;2.13;;;18.90;65.20;;;;;;4945078;29;20235;-84
2022/04/29 08:37:41;;;;;;;2.43;2.23;;;18.80;62.20;;;;;;4943675;29;20182;-83
2022/04/29 08:40:08;;;;;;;2.60;2.40;;;18.70;65.10;;;;;;4944932;29;20161;-83
2022/04/29 08:42:38;;;;;;;4.27;2.40;;;18.80;61.40;;;;;;4945616;29;20711;-85
2022/04/29 08:45:13;;;;;;;3.77;2.30;;;19.00;63.60;;;;;;4944108;29;20172;-84
2022/04/29 08:47:40;;;;;;;4.60;2.47;;;19.00;65.80;;;;;;4944441;29;20189;-84
2022/04/29 08:50:08;;;;;;;2.43;1.90;;;19.10;60.30;;;;;;4944188;29;20575;-84
2022/04/29 08:52:38;;;;;;;2.33;2.13;;;19.30;61.30;;;;;;4944582;29;20209;-85
2022/04/29 09:00:38;;;;;;;2.90;2.20;;;19.00;58.60;;;;;;4945182;29;20175;-85
2022/04/29 09:03:05;;;;;;;4.10;2.50;;;18.80;60.90;;;;;;4944094;29;20228;-82
2022/04/29 09:05:32;;;;;;;5.33;2.37;;;18.80;60.00;;;;;;4944935;29;20581;-84
2022/04/29 09:08:00;;;;;;;3.87;2.47;;;19.00;60.10;;;;;;4943437;29;20189;-85
2022/04/29 09:10:35;;;;;;;6.13;2.53;;;19.00;59.30;;;;;;4944300;29;20202;-83
2022/04/29 09:13:18;;;;;;;5.20;2.50;;;18.70;61.20;;;;;;4944927;29;20198;-83
2022/04/29 09:15:49;;;;;;;4.33;2.23;;;18.80;60.10;;;;;;4944612;29;20217;-84
2022/04/29 09:18:39;;;;;;;2.80;2.23;;;19.10;61.70;;;;;;4944465;29;20181;-85
2022/04/29 09:21:12;;;;;;;3.37;2.63;;;18.70;61.60;;;;;;4944198;29;20205;-84
2022/04/29 09:23:46;;;;;;;4.33;2.40;;;19.00;59.50;;;;;;4946794;29;20189;-84
2022/04/29 09:26:22;;;;;;;3.17;2.20;;;19.40;60.60;;;;;;4949922;29;20173;-84
2022/04/29 09:28:49;;;;;;;3.03;2.60;;;19.50;59.50;;;;;;4949192;29;20280;-83
2022/04/29 09:31:15;;;;;;;2.93;2.30;;;19.40;59.50;;;;;;4944804;29;20316;-81
2022/04/29 09:33:51;;;;;;;4.20;2.23;;;19.10;61.10;;;;;;4943200;29;20206;-84
2022/04/29 09:36:26;;;;;;;3.00;2.17;;;19.20;60.10;;;;;;4943854;29;20193;-83
2022/04/29 09:41:38;;;;;;;3.83;2.50;;;19.20;60.40;;;;;;4943164;29;20253;-81
2022/04/29 09:44:04;;;;;;;4.60;2.40;;;19.60;62.20;;;;;;4943313;29;20177;-81
2022/04/29 09:46:29;;;;;;;3.13;2.00;;;19.70;60.00;;;;;;4945134;29;20206;-80
2022/04/29 09:49:06;;;;;;;2.40;2.20;;;19.60;58.80;;;;;;4940354;29;20190;-81
2022/04/29 09:51:44;;;;;;;2.00;1.80;;;19.50;60.80;;;;;;4939788;29;20300;-82
2022/04/29 09:54:26;;;;;;;2.83;2.30;;;19.90;64.70;;;;;;4941981;29;20174;-80
2022/04/29 09:57:05;;;;;;;2.70;2.50;;;20.10;60.00;;;;;;4940652;29;20612;-81
2022/04/29 09:59:40;;;;;;;5.07;2.50;;;20.30;61.60;;;;;;4941332;29;20203;-82
2022/04/29 10:02:07;;;;;;;3.13;2.30;;;20.70;59.90;;;;;;4942371;29;20290;-83
2022/04/29 10:04:35;;;;;;;2.60;1.90;;;20.80;58.60;;;;;;4942621;29;20186;-83
2022/04/29 10:07:06;;;;;;;2.77;2.00;;;20.90;57.50;;;;;;4942341;29;20178;-83
2022/04/29 10:09:34;;;;;;;2.40;2.10;;;20.70;57.30;;;;;;4940778;29;20215;-80
2022/04/29 10:12:09;;;;;;;2.17;1.97;;;20.30;56.10;;;;;;4940888;29;20201;-81
2022/04/29 10:14:37;;;;;;;2.70;2.30;;;19.80;57.10;;;;;;4940404;29;20178;-82
2022/04/29 10:22:43;;;;;;;5.33;2.33;;;20.70;61.30;;;;;;4941707;29;20245;-81
2022/04/29 10:25:10;;;;;;;2.20;1.90;;;20.90;59.60;;;;;;4942342;29;20179;-81
2022/04/29 10:27:42;;;;;;;2.50;2.00;;;21.20;59.20;;;;;;4941044;29;20269;-82
2022/04/29 10:30:09;;;;;;;2.17;1.97;;;21.20;57.70;;;;;;4942094;29;20213;-79
2022/04/29 10:33:04;;;;;;;5.20;1.97;;;21.40;56.80;;;;;;4942865;29;20223;-77
2022/04/29 10:35:53;;;;;;;2.40;2.13;;;21.50;57.60;;;;;;4939943;29;20265;-79
2022/04/29 10:38:24;;;;;;;1.80;1.70;;;21.60;56.70;;;;;;4937858;29;20183;-77
2022/04/29 10:41:15;;;;;;;2.90;2.20;;;21.80;57.00;;;;;;4937193;29;20181;-77
2022/04/29 10:43:49;;;;;;;4.83;1.83;;;21.90;55.00;;;;;;4937108;29;20181;-77
2022/04/29 10:46:19;;;;;;;4.13;2.00;;;22.20;55.60;;;;;;4937321;29;20216;-77
2022/04/29 10:48:46;;;;;;;1.73;1.63;;;22.30;54.10;;;;;;4937500;29;20164;-77
2022/04/29 10:51:40;;;;;;;4.43;2.13;;;22.20;53.60;;;;;;4937054;29;20211;-77
2022/04/29 10:54:06;;;;;;;2.37;1.63;;;22.30;53.10;;;;;;4935682;29;20179;-77
2022/04/29 10:56:32;;;;;;;3.13;1.83;;;21.40;54.20;;;;;;4936984;29;20527;-77
2022/04/29 10:59:03;;;;;;;3.30;2.00;;;21.60;56.10;;;;;;4935794;29;20179;-77
2022/04/29 11:01:33;;;;;;;2.90;1.70;;;21.80;52.70;;;;;;4936584;29;20250;-77
2022/04/29 11:04:06;;;;;;;1.63;1.53;;;21.50;52.40;;;;;;4935560;29;20181;-77
2022/04/29 11:06:45;;;;;;;2.17;1.67;;;21.40;53.20;;;;;;4938359;29;20199;-78
2022/04/29 11:09:30;;;;;;;3.53;1.83;;;21.20;54.20;;;;;;4939131;29;20172;-78
2022/04/29 11:12:00;;;;;;;6.30;1.97;;;21.10;53.10;;;;;;4936751;29;20396;-78
2022/04/29 11:14:26;;;;;;;2.77;1.70;;;21.20;54.80;;;;;;4941292;29;20210;-77
2022/04/29 11:17:08;;;;;;;3.40;1.67;;;21.30;52.80;;;;;;4937463;29;20185;-78
2022/04/29 11:19:40;;;;;;;3.17;1.60;;;21.10;53.20;;;;;;4935940;29;20220;-77
2022/04/29 11:24:53;;;;;;;3.37;2.00;;;20.50;53.10;;;;;;4937489;29;20174;-77
2022/04/29 11:27:26;;;;;;;1.87;1.50;;;20.60;53.70;;;;;;4937030;29;20174;-78
2022/04/29 11:29:53;;;;;;;2.60;1.60;;;20.20;53.30;;;;;;4936088;29;20294;-79
2022/04/29 11:32:23;;;;;;;2.63;1.90;;;20.10;54.30;;;;;;4941527;29;20745;-77
2022/04/29 11:35:04;;;;;;;2.37;1.80;;;19.90;54.90;;;;;;4945157;29;20178;-77
2022/04/29 11:37:33;;;;;;;3.00;1.93;;;19.80;55.40;;;;;;4943457;29;20158;-78
2022/04/29 11:40:08;;;;;;;3.30;2.23;;;19.60;54.90;;;;;;4937803;29;20644;-77
2022/04/29 11:42:34;;;;;;;5.93;1.90;;;19.30;54.90;;;;;;4937898;29;20203;-77
2022/04/29 11:45:23;;;;;;;2.10;1.90;;;18.90;56.40;;;;;;4937226;29;20178;-77
2022/04/29 11:47:50;;;;;;;2.67;2.03;;;18.80;57.00;;;;;;4935727;29;20196;-77
2022/04/29 11:50:16;;;;;;;3.23;1.80;;;19.00;57.80;;;;;;4936246;29;20197;-77
2022/04/29 11:52:41;;;;;;;3.13;2.17;;;19.30;55.40;;;;;;4937209;29;20245;-77
2022/04/29 11:55:13;;;;;;;2.27;2.07;;;19.90;54.40;;;;;;4935990;29;20603;-77
2022/04/29 11:57:45;;;;;;;2.47;1.83;;;20.10;54.70;;;;;;4944966;29;20166;-77
2022/04/29 12:00:24;;;;;;;3.37;2.03;;;20.00;53.70;;;;;;4937642;29;20671;-77
2022/04/29 12:02:50;;;;;;;3.67;2.00;;;20.10;53.90;;;;;;4936097;29;20220;-78
2022/04/29 12:05:16;;;;;;;3.50;2.00;;;20.50;53.10;;;;;;4941593;29;20652;-80
2022/04/29 12:07:43;;;;;;;2.83;1.90;;;21.00;52.50;;;;;;4944404;29;20185;-80
2022/04/29 12:10:16;;;;;;;2.00;1.60;;;20.80;51.80;;;;;;4942392;29;20213;-80
2022/04/29 12:12:42;;;;;;;2.10;1.90;;;21.10;52.60;;;;;;4944394;29;20293;-81
2022/04/29 12:15:11;;;;;;;2.27;1.90;;;21.40;51.30;;;;;;4944664;29;20217;-82
2022/04/29 12:17:38;;;;;;;2.27;1.70;;;22.00;50.60;;;;;;4944072;29;20201;-80
2022/04/29 12:20:14;;;;;;;1.77;1.67;;;22.40;51.20;;;;;;4943880;29;20189;-80
2022/04/29 12:22:41;;;;;;;2.60;1.70;;;22.30;49.70;;;;;;4959798;29;20248;-84
2022/04/29 12:25:19;;;;;;;2.27;1.63;;;22.10;50.10;;;;;;4946286;29;20184;-82
2022/04/29 12:27:45;;;;;;;4.00;1.90;;;22.60;50.80;;;;;;4945162;29;20211;-81
2022/04/29 12:36:14;;;;;;;1.90;1.63;;;24.10;45.30;;;;;;4949594;29;20178;-81
2022/04/29 12:38:42;;;;;;;2.73;1.20;;;24.40;49.40;;;;;;4948750;29;20218;-81
2022/04/29 12:41:13;;;;;;;2.13;1.60;;;25.00;46.40;;;;;;4947527;29;20672;-80
2022/04/29 12:43:43;;;;;;;2.63;1.60;;;25.10;45.80;;;;;;4949882;29;20186;-79
2022/04/29 12:46:20;;;;;;;2.60;1.40;;;25.20;49.50;;;;;;4950361;29;20186;-81
2022/04/29 12:48:51;;;;;;;2.70;1.57;;;25.80;43.30;;;;;;4949440;29;20187;-82
2022/04/29 12:51:25;;;;;;;1.80;1.50;;;25.40;43.70;;;;;;4950155;29;20230;-81
2022/04/29 12:53:55;;;;;;;2.60;1.30;;;25.80;45.20;;;;;;4949440;29;20202;-81
2022/04/29 12:56:30;;;;;;;1.67;1.40;;;25.70;42.10;;;;;;4945567;29;20173;-81
2022/04/29 12:58:56;;;;;;;2.37;1.40;;;25.90;42.90;;;;;;4949826;29;20217;-79
2022/04/29 13:01:22;;;;;;;10.23;1.60;;;25.80;43.10;;;;;;4949748;29;20205;-79
2022/04/29 13:03:50;;;;;;;1.40;1.30;;;25.70;41.50;;;;;;4950565;29;20184;-78
2022/04/29 13:06:17;;;;;;;5.63;1.80;;;25.70;44.20;;;;;;4948821;29;20207;-78
2022/04/29 13:08:44;;;;;;;1.53;1.40;;;25.90;42.70;;;;;;4944983;29;20272;-78
2022/04/29 13:11:17;;;;;;;2.97;1.47;;;24.80;42.70;;;;;;4945358;29;20216;-78
2022/04/29 13:13:43;;;;;;;4.43;1.90;;;23.90;39.50;;;;;;4943131;29;20173;-78
2022/04/29 13:16:08;;;;;;;3.63;1.40;;;23.30;42.60;;;;;;4946840;29;20691;-78
2022/04/29 13:18:34;;;;;;;1.97;1.30;;;23.50;42.00;;;;;;4948420;29;20173;-79
2022/04/29 13:21:05;;;;;;;15.93;2.47;;;23.50;42.40;;;;;;4945003;29;20184;-79
2022/04/29 13:23:31;;;;;;;4.30;1.40;;;23.60;44.20;;;;;;4946964;29;20206;-78
2022/04/29 13:25:57;;;;;;;4.10;1.23;;;24.10;42.40;;;;;;4943473;29;20185;-79
2022/04/29 13:28:22;;;;;;;3.97;2.00;;;24.40;42.30;;;;;;4953573;29;20586;-78